METAR Formatted Surface Weather Observation
Issued by NWS

Home | Current Version | Previous Version | Text Only | Print | Product List | Glossary On
Versions: 1 2 3
000
SAUS45 KFGZ 281357
MTRRQE
METAR KRQE 281353Z AUTO 00000KT 10SM CLR M08/M15 A3031 RMK AO2
SLP259 T10831150 TSNO



USA.gov is the U.S. government's official web portal to all federal, state and local government web resources and services.